Terminal Aerodrome Forecast
Issued by NWS Duluth, MN

Home | Current Version | Previous Version | Text Only | Print | Product List | Glossary On
Versions: 1 2 3 4 5 6 7 8 9 10 11 12 13 14 15 16 17 18
000
FTUS43 KDLH 221720
TAFDLH
TAF
KDLH 221720Z 2218/2318 22008KT P6SM OVC120
     FM222100 21008KT 5SM -SN SCT025 OVC050
     FM222300 20007KT 2SM -SN SCT012 OVC025
     FM230200 21006KT 4SM -SN BKN025
     FM230400 24005KT P6SM BKN050
     FM230900 28005KT P6SM FEW200=

USA.gov is the U.S. government's official web portal to all federal, state and local government web resources and services.